KNMI Weerbulletins

Hier vind u de KMNI verwachtingen en de waarnemingen

Bron: KNMI website
Laatste update op 18-08-2018 om 06:27
ZCZC
FBNL50 EHDB 180242
WEERBULLETIN VOOR DE LUCHTVAART
.
GELDIG 180300/180900 UTC
.
SITUATIE: AAN DE ZUIDFLANK VAN EEN LAGEDRUKGEBIED BOVEN DE NOORSE ZEE
WORDT MET EEN ZUIDWESTELIJKE STROMING MARITIEM POLAIRE LUCHT
AANGEVOERD. EEN NO-ZW GEORIENTEERD WARMTEFRONT BEREIKT TEGEN HET
EINDE VAN DE PERIODE HET (NOORD)WESTEN. DE OPBOUW WORDT IN DE TWEEDE
HELFT VAN DE PERIODE GELEIDELIJK ONSTABIEL TOT CA. 3000 VT.
.
SIGNIFICANT WEER: IN HET (NOORD)OOSTEN AANVANKELIJK LOKAAL GRONDMIST
EN/OF EEN ENKELE MISTBANK. IN DE TWEEDE HELFT VAN DE PERIODE IN HET
NOORDWESTELIJK KUSTGEBIED LOKAAL MATIGE TURBULENTIE.
.
.
.
WIND: ZUIDWEST 3-7 KN, GELEIDELIJK TOENEMEND NAAR 7-12 KN. LANGS DE
KUST, HET NOORDWESTELIJK KUSTGEBIED EN BOVEN HET IJSSELMEER 13-17 KN,
GELEIDELIJK TOENEMEND NAAR 15-20 KN.
.
.
BEWOLKING: OP EN NABIJ HET WARMTEFRONT BKN SC/AS 5000-8000 VT EN
SCT/BKN SC 1500-3000 VT, GELAAGD TOT BOVEN FL100.
.
.
.
ZICHT: MEER DAN 10 KM. IN GRONDMIST 3-5 KM, LOKAAL 1500-3000 M. IN
EEN MISTBANK MINDER DAN 1500 M.
.
NULGRADEN NIVEAU: BOVEN FL100.
.
HOOGTEWINDEN EN TEMPERATUREN:
       03 UTC:       09 UTC:
0500VT 230/05-20 +17 220/05-20 +18
1500VT 250/05-20 +15 230/05-25 +15
3000VT 260/05-25 +11 240/15-25 +12
FL 050 260/10-25 +06 270/10-25 +09
FL 100 260/15-20 +02 280/10-20 +03
HOOGSTE WINDSNELHEDEN IN HET NOORDWESTEN.
.
THERMIEK: VANAF 07 UTC ZWAK, SPOEDIG MATIG. OP EN NABIJ HET
WARMTEFRONT AFGEZWAKT A.G.V. AFSCHERMING DOOR BEWOLKING.
.
MAX. TEMPERATUUR: VAN 21 GRADEN CELSIUS LANGS DE KUST TOT 24 GRADEN
IN HET (ZUID)OOSTEN.
.
VOORUITZICHTEN VOOR DE PERIODE VAN 180900/181500: HET EERDERGENOEMDE
WARMTEFRONT TREKT VERDER OOSTWAARTS EN LIGT AAN HET EINDE VAN DE
PERIODE BOVEN HET (ZUID)OOSTEN. ACHTER HET WARMTEFRONT WORDT MARITIEM
TROPISCHE LUCHT AANGEVOERD.
.
DAGLICHTPERIODE: 04.14 TOT 19.13 UTC.=
NNNN
Bron: KNMI website
Laatste update op 18-08-2018 om 06:27
ZCZC
FT172300 EHAM     AMSTERDAM/SCHIPHOL   NLD   -3 m.
TAF EHAM 172248Z 1800/1906 19006KT CAVOK
    BECMG 1808/1810 23014KT SCT020 SCT025
    BECMG 1818/1821 21006KT
    PROB40 1903/1906 5000 BR BKN006=
ZCZC
FT172300 EHBK     MAASTRICHT/MAASTRICHT-AACHEN   NLD   114 m.
TAF EHBK 172307Z 1800/1906 22004KT CAVOK
    BECMG 1809/1812 25010KT
    BECMG 1818/1821 22004KT=
ZCZC
FT172300 EHGG     GRONINGEN/EELDE   NLD   5 m.
TAF EHGG 172307Z 1800/1906 20004KT CAVOK
    PROB30 1800/1804 4000 MIFG
    BECMG 1808/1811 23015KT
    BECMG 1818/1821 20004KT
    PROB30 1904/1906 4000 BR BKN008=
ZCZC
FT172300 EHRD     ROTTERDAM/THE HAGUE AIRPORT   NLD   -5 m.
TAF EHRD 172248Z 1800/1906 19006KT CAVOK
    BECMG 1808/1810 23014KT SCT020
    BECMG 1818/1821 21006KT
    PROB40 1903/1906 4000 BR BKN005=
ZCZC
FT172300 EHEH CCA EINDHOVEN/EINDHOVEN   NLD   22 m.
TAF COR EHEH 172359Z 1800/1906 VRB02KT CAVOK
    BECMG 1806/1809 24007KT
    BECMG 1815/1818 30007KT
    BECMG 1819/1822 VRB03KT
    PROB40 1901/1905 1500 MIFG=
ZCZC
FC180100 EHGR     GILZE-RIJEN/GILZE-RIJEN   NLD   14 m.
TAF EHGR 180100Z NIL=
ZCZC
FC180100 EHKD     DE KOOY/DE KOOY   NLD   1 m.
TAF EHKD 180002Z 1801/1813 19007KT FEW030
    BECMG 1804/1807 24015G25KT
    TEMPO 1810/1813 SCT015 BKN020=
ZCZC
FC180100 EHLW     LEEUWARDEN/LEEUWARDEN   NLD   1 m.
TAF EHLW 180100Z NIL=
ZCZC
FC180100 EHVK     VOLKEL/VOLKEL   NLD   21 m.
TAF EHVK 180100Z NIL=
ZCZC
FC180100 EHWO     WOENSDRECHT/WOENSDRECHT   NLD   19 m.
TAF EHWO 180100Z NIL=
Bron: KNMI website
Laatste update op 18-08-2018 om 06:27
ZCZC
SA180355 EHKD     DE KOOY/DE KOOY   NLD   1 m.
METAR EHKD 180355Z AUTO 17007KT 9999 OVC044 15/14 Q1018 BLU=
ZCZC
SA180355 EHFD     F3-FB-1   NLD   50 m.
METAR EHFD 180355Z AUTO 24025KT //// // FEW018/// SCT024/// BKN027///
18/13 Q1015 RE// W///H///=
ZCZC
SA180355 EHAM     AMSTERDAM/SCHIPHOL   NLD   -3 m.
METAR EHAM 180355Z 18007KT 9999 FEW020 15/14 Q1020 NOSIG=
ZCZC
SA180355 EHVL     VLIELAND   NLD   10 m.
METAR EHVL 180355Z AUTO 21008KT 9999 OVC370 17/15 Q1018 BLU=
ZCZC
SA180355 EHJR     K13-A   NLD   37 m.
METAR EHJR 180355Z AUTO 25017KT //// // ///////// 18/14 Q1018 RE//
W18/H10=
ZCZC
SA180355 EHLW     LEEUWARDEN/LEEUWARDEN   NLD   1 m.
METAR EHLW 180355Z AUTO 18005KT 9999 SCT390 14/13 Q1019
BLU 28009KT 9999 FEW036=
ZCZC
SA180355 EHDL     ARNHEM/DEELEN   NLD   48 m.
METAR EHDL 180355Z AUTO VRB02KT 9999 NCD 12/11 Q1021 BLU=
ZCZC
SA180355 EHGG     GRONINGEN/EELDE   NLD   5 m.
METAR EHGG 180355Z AUTO 18004KT 9999 NCD 12/10 Q1020 NOSIG=
ZCZC
SA180355 EHSC     LICHTEILAND GOEREE   NLD   22 m.
METAR EHSC 180355Z AUTO 24013KT 9999 ///////// 19/15 Q1019 W21/H9=
ZCZC
SA180355 EHSA     EURO PLATFORM   NLD   19 m.
METAR EHSA 180355Z AUTO 23015KT //// // ///////// 19/13 Q1020 RE//
W19/H10=
ZCZC
SA180355 EHWO     WOENSDRECHT/WOENSDRECHT   NLD   19 m.
METAR EHWO 180355Z AUTO 20005KT 170V240 9999 NCD 14/13 Q1021 BLU=
ZCZC
SA180355 EHRD     ROTTERDAM/THE HAGUE AIRPORT   NLD   -5 m.
METAR EHRD 180355Z AUTO 18009KT 9999 NCD 15/14 Q1020 NOSIG=
ZCZC
SA180355 EHGR     GILZE-RIJEN/GILZE-RIJEN   NLD   14 m.
METAR EHGR 180355Z AUTO 20005KT 170V240 9999 NCD 12/11 Q1021 BLU=
ZCZC
SA180355 EHEH     EINDHOVEN/EINDHOVEN   NLD   22 m.
METAR EHEH 180355Z AUTO 22005KT 9999 OVC042 12/10 Q1021 BLU=
ZCZC
SA180355 EHVK     VOLKEL/VOLKEL   NLD   21 m.
METAR EHVK 180355Z AUTO 21004KT 9999 BKN044 12/10 Q1021 BLU=
ZCZC
SA180355 EHBK     MAASTRICHT/MAASTRICHT-AACHEN   NLD   114 m.
METAR EHBK 180355Z AUTO 21005KT 9999 NCD 11/11 Q1022 NOSIG=
ZCZC
SA180355 EHFZ     F16-A   NLD   43 m.
METAR EHFZ 180355Z AUTO 23017KT 9999 FEW017 18/14 Q1016 W///H///=
ZCZC
SA180355 EHKV     K14-FA-1C   NLD   41 m.
METAR EHKV 180355Z AUTO 24020KT 9999 NCD 18/13 Q1018 W///H///=
ZCZC
SA180355 EHMG     L9-FF-1   NLD   44 m.
METAR EHMG 180355Z AUTO 23019KT 9999 NCD 19/14 Q1018 W///H///=
ZCZC
SA180355 EHMA     AWG-1   NLD   40 m.
METAR EHMA 180355Z AUTO 20018KT 9999 NSC 16/14 Q1018 W///H///=
ZCZC
SA180355 EHDV     D15-FA-1   NLD   42 m.
METAR EHDV 180355Z AUTO 24020KT 9999 FEW039/// 17/14 Q1015 W///H///=
ZCZC
SA180355 EHAK     A12-CPP   NLD   48 m.
METAR EHAK 180355Z AUTO 23025KT 9999 SCT013/// BKN016/// BKN020///
17/14 Q1013 W///H///=
ZCZC
SA180355 EHQE     HOORN-A   NLD   50 m.
METAR EHQE 180355Z AUTO 20015KT 9999 NSC 19/13 Q1018 W///H///=
ZCZC
SA180355 EHJA     J6-A   NLD   45 m.
METAR EHJA 180355Z AUTO 23022KT 9999 NCD 17/14 Q1017 W///H///=
ZCZC
SA180355 EHPG     P11-B   NLD   41 m.
METAR EHPG 180355Z AUTO 24018KT 9999 FEW019 18/14 Q1019 W///H///=
ZCZC
SA180355 EHHW     BUITENGAATS/BG-OHVS2      42 m.
METAR EHHW 180355Z AUTO 24020KT //// // FEW042/// 19/13 Q1018 RE//
W///H///=
ZCZC
SA180355 EHFS     VLISSINGEN AWS   NLD   8 m.
METAR EHFS 180355Z AUTO 22014KT 9999 NSC 16/14 Q1020 W///H///=